Kralendijk, Netherlands Antilles
Current Conditions -  °F | °C
As of 9:00 PM on Friday 19 Dec 2014 (Local Time) from TNCC Reporting Station
Few Clouds Few Clouds  
Wind Chill: 79°   Ceiling: Unl
Heat Index: 81°   Visibility: 6mi
Dew Point: 70°   Wind: 7mph
Humidity: 74%   Direction: 120°ESE
Pressure: 29.91"   Gusts: NA
Location:  12.15°N, 68.28°W
Report Text: TNCC 200100Z 12006KT 080V140 9999 FEW018 26/21 Q1013 NOSIG
Loading
Personal Weather Stations






























Interactive Weather Map New forecast layout! Learn more

10-Day Weather Forecast

Advertisements
Track Severe Weather on mobile